sensor_id;sensor_type;location;lat;lon;timestamp;P1;durP1;ratioP1;P2;durP2;ratioP2
24357;SDS011;13668;52.154;5.580;2023-06-22T00:01:31;2.88;;;2.42;;
24357;SDS011;13668;52.154;5.580;2023-06-22T00:03:57;4.03;;;2.92;;
24357;SDS011;13668;52.154;5.580;2023-06-22T00:06:23;3.20;;;2.90;;
24357;SDS011;13668;52.154;5.580;2023-06-22T00:08:49;4.13;;;2.72;;
24357;SDS011;13668;52.154;5.580;2023-06-22T00:11:15;3.63;;;3.03;;
24357;SDS011;13668;52.154;5.580;2023-06-22T00:13:40;3.38;;;3.05;;
24357;SDS011;13668;52.154;5.580;2023-06-22T00:16:06;3.78;;;3.10;;
24357;SDS011;13668;52.154;5.580;2023-06-22T00:18:32;4.97;;;3.53;;
24357;SDS011;13668;52.154;5.580;2023-06-22T00:20:59;3.00;;;2.70;;
24357;SDS011;13668;52.154;5.580;2023-06-22T00:23:25;4.15;;;3.05;;
24357;SDS011;13668;52.154;5.580;2023-06-22T00:25:51;3.75;;;3.40;;
24357;SDS011;13668;52.154;5.580;2023-06-22T00:28:17;3.90;;;3.00;;
24357;SDS011;13668;52.154;5.580;2023-06-22T00:30:43;5.45;;;3.30;;
24357;SDS011;13668;52.154;5.580;2023-06-22T00:33:10;4.95;;;3.40;;
24357;SDS011;13668;52.154;5.580;2023-06-22T00:35:36;4.45;;;2.85;;
24357;SDS011;13668;52.154;5.580;2023-06-22T00:38:02;3.38;;;2.92;;
24357;SDS011;13668;52.154;5.580;2023-06-22T00:40:32;3.55;;;3.13;;
24357;SDS011;13668;52.154;5.580;2023-06-22T00:42:58;4.25;;;3.50;;
24357;SDS011;13668;52.154;5.580;2023-06-22T00:45:25;3.80;;;3.15;;
24357;SDS011;13668;52.154;5.580;2023-06-22T00:47:57;3.03;;;2.67;;
24357;SDS011;13668;52.154;5.580;2023-06-22T00:50:27;3.70;;;2.80;;
24357;SDS011;13668;52.154;5.580;2023-06-22T00:52:59;3.42;;;2.85;;
24357;SDS011;13668;52.154;5.580;2023-06-22T00:55:25;2.90;;;2.67;;
24357;SDS011;13668;52.154;5.580;2023-06-22T00:57:52;3.50;;;2.88;;
24357;SDS011;13668;52.154;5.580;2023-06-22T01:00:24;3.75;;;2.88;;
24357;SDS011;13668;52.154;5.580;2023-06-22T01:02:51;3.42;;;2.80;;
24357;SDS011;13668;52.154;5.580;2023-06-22T01:05:18;3.17;;;2.88;;
24357;SDS011;13668;52.154;5.580;2023-06-22T01:12:56;3.70;;;2.60;;
24357;SDS011;13668;52.154;5.580;2023-06-22T01:15:26;3.40;;;2.80;;
24357;SDS011;13668;52.154;5.580;2023-06-22T01:17:53;3.45;;;2.42;;
24357;SDS011;13668;52.154;5.580;2023-06-22T01:20:20;3.47;;;2.80;;
24357;SDS011;13668;52.154;5.580;2023-06-22T01:23:07;3.88;;;3.08;;
24357;SDS011;13668;52.154;5.580;2023-06-22T01:25:43;4.00;;;2.85;;
24357;SDS011;13668;52.154;5.580;2023-06-22T01:28:23;4.47;;;3.28;;
24357;SDS011;13668;52.154;5.580;2023-06-22T01:30:53;4.32;;;3.22;;
24357;SDS011;13668;52.154;5.580;2023-06-22T01:33:28;3.33;;;3.03;;
24357;SDS011;13668;52.154;5.580;2023-06-22T01:35:54;2.83;;;2.58;;
24357;SDS011;13668;52.154;5.580;2023-06-22T01:38:20;4.05;;;3.30;;
24357;SDS011;13668;52.154;5.580;2023-06-22T01:40:47;3.58;;;3.28;;
24357;SDS011;13668;52.154;5.580;2023-06-22T01:43:13;3.00;;;2.70;;
24357;SDS011;13668;52.154;5.580;2023-06-22T01:45:39;3.72;;;3.20;;
24357;SDS011;13668;52.154;5.580;2023-06-22T01:48:05;4.47;;;3.50;;
24357;SDS011;13668;52.154;5.580;2023-06-22T01:50:32;3.20;;;2.83;;
24357;SDS011;13668;52.154;5.580;2023-06-22T01:52:58;3.55;;;3.10;;
24357;SDS011;13668;52.154;5.580;2023-06-22T01:55:24;4.75;;;3.40;;
24357;SDS011;13668;52.154;5.580;2023-06-22T01:57:50;3.97;;;3.33;;
24357;SDS011;13668;52.154;5.580;2023-06-22T02:00:18;3.72;;;2.90;;
24357;SDS011;13668;52.154;5.580;2023-06-22T02:05:20;5.15;;;2.80;;
24357;SDS011;13668;52.154;5.580;2023-06-22T02:10:29;3.92;;;2.78;;
24357;SDS011;13668;52.154;5.580;2023-06-22T02:12:57;3.85;;;3.45;;
24357;SDS011;13668;52.154;5.580;2023-06-22T02:15:23;4.57;;;3.42;;
24357;SDS011;13668;52.154;5.580;2023-06-22T02:17:49;4.75;;;3.45;;
24357;SDS011;13668;52.154;5.580;2023-06-22T02:20:15;4.13;;;3.42;;
24357;SDS011;13668;52.154;5.580;2023-06-22T02:22:41;4.32;;;3.70;;
24357;SDS011;13668;52.154;5.580;2023-06-22T02:25:07;4.68;;;3.75;;
24357;SDS011;13668;52.154;5.580;2023-06-22T02:27:33;4.45;;;3.58;;
24357;SDS011;13668;52.154;5.580;2023-06-22T02:29:59;5.20;;;3.88;;
24357;SDS011;13668;52.154;5.580;2023-06-22T02:32:25;4.75;;;3.90;;
24357;SDS011;13668;52.154;5.580;2023-06-22T02:34:52;4.43;;;3.30;;
24357;SDS011;13668;52.154;5.580;2023-06-22T02:37:18;5.32;;;4.18;;
24357;SDS011;13668;52.154;5.580;2023-06-22T02:39:44;4.97;;;3.53;;
24357;SDS011;13668;52.154;5.580;2023-06-22T02:42:10;4.78;;;3.70;;
24357;SDS011;13668;52.154;5.580;2023-06-22T02:44:36;4.03;;;3.55;;
24357;SDS011;13668;52.154;5.580;2023-06-22T02:47:02;5.68;;;3.60;;
24357;SDS011;13668;52.154;5.580;2023-06-22T02:49:28;5.07;;;3.53;;
24357;SDS011;13668;52.154;5.580;2023-06-22T02:51:54;5.00;;;3.50;;
24357;SDS011;13668;52.154;5.580;2023-06-22T02:54:20;4.28;;;3.20;;
24357;SDS011;13668;52.154;5.580;2023-06-22T02:56:46;5.18;;;4.18;;
24357;SDS011;13668;52.154;5.580;2023-06-22T02:59:13;3.83;;;3.30;;
24357;SDS011;13668;52.154;5.580;2023-06-22T03:01:39;4.22;;;3.53;;
24357;SDS011;13668;52.154;5.580;2023-06-22T03:04:08;6.22;;;3.80;;
24357;SDS011;13668;52.154;5.580;2023-06-22T03:06:35;4.90;;;3.13;;
24357;SDS011;13668;52.154;5.580;2023-06-22T03:09:04;5.13;;;4.00;;
24357;SDS011;13668;52.154;5.580;2023-06-22T03:11:30;4.22;;;3.40;;
24357;SDS011;13668;52.154;5.580;2023-06-22T03:13:56;3.90;;;3.30;;
24357;SDS011;13668;52.154;5.580;2023-06-22T03:16:22;4.72;;;4.07;;
24357;SDS011;13668;52.154;5.580;2023-06-22T03:18:48;6.43;;;4.03;;
24357;SDS011;13668;52.154;5.580;2023-06-22T03:21:14;4.30;;;3.65;;
24357;SDS011;13668;52.154;5.580;2023-06-22T03:23:41;4.90;;;3.25;;
24357;SDS011;13668;52.154;5.580;2023-06-22T03:26:08;5.03;;;4.50;;
24357;SDS011;13668;52.154;5.580;2023-06-22T03:28:35;4.93;;;4.07;;
24357;SDS011;13668;52.154;5.580;2023-06-22T03:31:00;8.10;;;4.88;;
24357;SDS011;13668;52.154;5.580;2023-06-22T03:33:26;4.53;;;3.58;;
24357;SDS011;13668;52.154;5.580;2023-06-22T03:35:52;4.97;;;4.10;;
24357;SDS011;13668;52.154;5.580;2023-06-22T03:38:18;4.85;;;4.13;;
24357;SDS011;13668;52.154;5.580;2023-06-22T03:40:44;8.27;;;5.18;;
24357;SDS011;13668;52.154;5.580;2023-06-22T03:43:10;7.10;;;5.00;;
24357;SDS011;13668;52.154;5.580;2023-06-22T03:45:36;6.28;;;4.22;;
24357;SDS011;13668;52.154;5.580;2023-06-22T03:48:05;7.70;;;5.05;;
24357;SDS011;13668;52.154;5.580;2023-06-22T03:50:31;6.63;;;5.38;;
24357;SDS011;13668;52.154;5.580;2023-06-22T03:52:57;8.70;;;5.32;;
24357;SDS011;13668;52.154;5.580;2023-06-22T03:55:23;6.72;;;5.75;;
24357;SDS011;13668;52.154;5.580;2023-06-22T03:57:49;7.38;;;5.13;;
24357;SDS011;13668;52.154;5.580;2023-06-22T04:00:15;8.60;;;5.60;;
24357;SDS011;13668;52.154;5.580;2023-06-22T04:02:41;6.85;;;4.20;;
24357;SDS011;13668;52.154;5.580;2023-06-22T04:05:08;7.32;;;4.75;;
24357;SDS011;13668;52.154;5.580;2023-06-22T04:07:34;9.35;;;5.88;;
24357;SDS011;13668;52.154;5.580;2023-06-22T04:10:02;7.70;;;5.75;;
24357;SDS011;13668;52.154;5.580;2023-06-22T04:12:28;8.27;;;6.15;;
24357;SDS011;13668;52.154;5.580;2023-06-22T04:14:54;10.77;;;7.72;;
24357;SDS011;13668;52.154;5.580;2023-06-22T04:17:20;10.02;;;6.53;;
24357;SDS011;13668;52.154;5.580;2023-06-22T04:19:46;7.63;;;5.97;;
24357;SDS011;13668;52.154;5.580;2023-06-22T04:22:12;9.45;;;6.55;;
24357;SDS011;13668;52.154;5.580;2023-06-22T04:24:38;9.15;;;6.10;;
24357;SDS011;13668;52.154;5.580;2023-06-22T04:27:04;7.72;;;6.32;;
24357;SDS011;13668;52.154;5.580;2023-06-22T04:29:30;8.63;;;6.15;;
24357;SDS011;13668;52.154;5.580;2023-06-22T04:31:57;10.20;;;6.50;;
24357;SDS011;13668;52.154;5.580;2023-06-22T04:34:23;9.50;;;7.35;;
24357;SDS011;13668;52.154;5.580;2023-06-22T04:36:52;9.02;;;6.75;;
24357;SDS011;13668;52.154;5.580;2023-06-22T04:39:18;13.27;;;8.25;;
24357;SDS011;13668;52.154;5.580;2023-06-22T04:41:44;11.00;;;8.27;;
24357;SDS011;13668;52.154;5.580;2023-06-22T04:44:14;12.05;;;8.20;;
24357;SDS011;13668;52.154;5.580;2023-06-22T04:46:53;10.80;;;8.25;;
24357;SDS011;13668;52.154;5.580;2023-06-22T04:49:22;15.80;;;9.45;;
24357;SDS011;13668;52.154;5.580;2023-06-22T04:51:57;17.30;;;10.23;;
24357;SDS011;13668;52.154;5.580;2023-06-22T04:54:23;13.70;;;10.25;;
24357;SDS011;13668;52.154;5.580;2023-06-22T04:56:49;18.92;;;11.18;;
24357;SDS011;13668;52.154;5.580;2023-06-22T04:59:21;15.77;;;10.73;;
24357;SDS011;13668;52.154;5.580;2023-06-22T05:01:47;17.30;;;12.00;;
24357;SDS011;13668;52.154;5.580;2023-06-22T05:04:13;15.88;;;11.23;;
24357;SDS011;13668;52.154;5.580;2023-06-22T05:06:39;20.08;;;13.85;;
24357;SDS011;13668;52.154;5.580;2023-06-22T05:09:05;21.95;;;15.07;;
24357;SDS011;13668;52.154;5.580;2023-06-22T05:11:31;20.75;;;13.52;;
24357;SDS011;13668;52.154;5.580;2023-06-22T05:13:57;22.95;;;14.30;;
24357;SDS011;13668;52.154;5.580;2023-06-22T05:16:23;21.02;;;13.95;;
24357;SDS011;13668;52.154;5.580;2023-06-22T05:18:52;19.40;;;13.77;;
24357;SDS011;13668;52.154;5.580;2023-06-22T05:21:22;21.98;;;13.88;;
24357;SDS011;13668;52.154;5.580;2023-06-22T05:23:49;27.67;;;16.17;;
24357;SDS011;13668;52.154;5.580;2023-06-22T05:26:15;19.60;;;13.30;;
24357;SDS011;13668;52.154;5.580;2023-06-22T05:28:41;20.33;;;13.48;;
24357;SDS011;13668;52.154;5.580;2023-06-22T05:31:10;23.98;;;13.73;;
24357;SDS011;13668;52.154;5.580;2023-06-22T05:33:36;19.25;;;12.98;;
24357;SDS011;13668;52.154;5.580;2023-06-22T05:36:02;18.00;;;12.55;;
24357;SDS011;13668;52.154;5.580;2023-06-22T05:38:28;19.80;;;14.02;;
24357;SDS011;13668;52.154;5.580;2023-06-22T05:40:54;19.98;;;13.10;;
24357;SDS011;13668;52.154;5.580;2023-06-22T05:43:20;20.98;;;13.60;;
24357;SDS011;13668;52.154;5.580;2023-06-22T05:45:46;17.48;;;12.75;;
24357;SDS011;13668;52.154;5.580;2023-06-22T05:48:12;22.30;;;13.63;;
24357;SDS011;13668;52.154;5.580;2023-06-22T05:50:38;16.67;;;12.05;;
24357;SDS011;13668;52.154;5.580;2023-06-22T05:53:04;17.10;;;11.68;;
24357;SDS011;13668;52.154;5.580;2023-06-22T05:55:32;16.90;;;12.85;;
24357;SDS011;13668;52.154;5.580;2023-06-22T05:57:58;15.07;;;10.45;;
24357;SDS011;13668;52.154;5.580;2023-06-22T06:00:24;17.33;;;12.48;;
24357;SDS011;13668;52.154;5.580;2023-06-22T06:02:50;16.33;;;11.60;;
24357;SDS011;13668;52.154;5.580;2023-06-22T06:05:16;18.95;;;12.25;;
24357;SDS011;13668;52.154;5.580;2023-06-22T06:07:43;18.80;;;11.52;;
24357;SDS011;13668;52.154;5.580;2023-06-22T06:10:09;15.05;;;10.43;;
24357;SDS011;13668;52.154;5.580;2023-06-22T06:12:35;17.45;;;11.57;;
24357;SDS011;13668;52.154;5.580;2023-06-22T06:15:02;12.48;;;8.93;;
24357;SDS011;13668;52.154;5.580;2023-06-22T06:17:28;14.27;;;10.02;;
24357;SDS011;13668;52.154;5.580;2023-06-22T06:19:54;13.45;;;10.43;;
24357;SDS011;13668;52.154;5.580;2023-06-22T06:22:20;14.68;;;10.30;;
24357;SDS011;13668;52.154;5.580;2023-06-22T06:24:48;16.80;;;11.98;;
24357;SDS011;13668;52.154;5.580;2023-06-22T06:27:14;14.43;;;9.25;;
24357;SDS011;13668;52.154;5.580;2023-06-22T06:29:41;11.48;;;9.27;;
24357;SDS011;13668;52.154;5.580;2023-06-22T06:32:07;16.98;;;11.25;;
24357;SDS011;13668;52.154;5.580;2023-06-22T06:34:33;10.75;;;7.50;;
24357;SDS011;13668;52.154;5.580;2023-06-22T06:36:59;8.75;;;6.97;;
24357;SDS011;13668;52.154;5.580;2023-06-22T06:39:25;12.30;;;8.95;;
24357;SDS011;13668;52.154;5.580;2023-06-22T06:41:51;10.15;;;8.55;;
24357;SDS011;13668;52.154;5.580;2023-06-22T06:44:17;10.50;;;7.13;;
24357;SDS011;13668;52.154;5.580;2023-06-22T06:46:43;8.80;;;7.40;;
24357;SDS011;13668;52.154;5.580;2023-06-22T06:49:09;9.73;;;7.30;;
24357;SDS011;13668;52.154;5.580;2023-06-22T06:51:35;10.13;;;7.50;;
24357;SDS011;13668;52.154;5.580;2023-06-22T06:54:01;8.15;;;7.22;;
24357;SDS011;13668;52.154;5.580;2023-06-22T06:56:28;9.15;;;6.30;;
24357;SDS011;13668;52.154;5.580;2023-06-22T06:58:55;6.38;;;5.70;;
24357;SDS011;13668;52.154;5.580;2023-06-22T07:01:21;8.18;;;6.22;;
24357;SDS011;13668;52.154;5.580;2023-06-22T07:03:47;8.02;;;7.22;;
24357;SDS011;13668;52.154;5.580;2023-06-22T07:06:13;7.63;;;6.55;;
24357;SDS011;13668;52.154;5.580;2023-06-22T07:08:39;7.85;;;6.80;;
24357;SDS011;13668;52.154;5.580;2023-06-22T07:11:05;7.28;;;5.90;;
24357;SDS011;13668;52.154;5.580;2023-06-22T07:13:31;8.88;;;6.90;;
24357;SDS011;13668;52.154;5.580;2023-06-22T07:15:58;7.00;;;5.10;;
24357;SDS011;13668;52.154;5.580;2023-06-22T07:18:24;7.20;;;5.95;;
24357;SDS011;13668;52.154;5.580;2023-06-22T07:20:51;6.50;;;5.10;;
24357;SDS011;13668;52.154;5.580;2023-06-22T07:23:17;6.80;;;5.57;;
24357;SDS011;13668;52.154;5.580;2023-06-22T07:25:43;8.07;;;5.93;;
24357;SDS011;13668;52.154;5.580;2023-06-22T07:28:09;6.82;;;4.78;;
24357;SDS011;13668;52.154;5.580;2023-06-22T07:30:35;5.25;;;4.75;;
24357;SDS011;13668;52.154;5.580;2023-06-22T07:33:01;5.75;;;5.15;;
24357;SDS011;13668;52.154;5.580;2023-06-22T07:35:31;6.45;;;4.35;;
24357;SDS011;13668;52.154;5.580;2023-06-22T07:37:58;4.70;;;4.30;;
24357;SDS011;13668;52.154;5.580;2023-06-22T07:40:24;5.38;;;4.88;;
24357;SDS011;13668;52.154;5.580;2023-06-22T07:42:50;5.13;;;4.35;;
24357;SDS011;13668;52.154;5.580;2023-06-22T07:45:19;4.90;;;4.47;;
24357;SDS011;13668;52.154;5.580;2023-06-22T07:47:45;4.18;;;3.78;;
24357;SDS011;13668;52.154;5.580;2023-06-22T07:50:12;8.00;;;5.20;;
24357;SDS011;13668;52.154;5.580;2023-06-22T07:52:38;5.72;;;4.97;;
24357;SDS011;13668;52.154;5.580;2023-06-22T07:55:04;4.30;;;3.90;;
24357;SDS011;13668;52.154;5.580;2023-06-22T07:57:30;3.97;;;3.58;;
24357;SDS011;13668;52.154;5.580;2023-06-22T07:59:59;4.55;;;4.05;;
24357;SDS011;13668;52.154;5.580;2023-06-22T08:02:26;6.32;;;4.85;;
24357;SDS011;13668;52.154;5.580;2023-06-22T08:04:52;5.18;;;3.70;;
24357;SDS011;13668;52.154;5.580;2023-06-22T08:07:18;4.10;;;3.78;;
24357;SDS011;13668;52.154;5.580;2023-06-22T08:09:48;5.00;;;4.40;;
24357;SDS011;13668;52.154;5.580;2023-06-22T08:12:15;3.90;;;2.40;;
24357;SDS011;13668;52.154;5.580;2023-06-22T08:14:41;4.47;;;3.95;;
24357;SDS011;13668;52.154;5.580;2023-06-22T08:17:11;4.78;;;4.25;;
24357;SDS011;13668;52.154;5.580;2023-06-22T08:19:37;5.32;;;4.03;;
24357;SDS011;13668;52.154;5.580;2023-06-22T08:22:03;5.65;;;4.43;;
24357;SDS011;13668;52.154;5.580;2023-06-22T08:24:29;4.95;;;3.72;;
24357;SDS011;13668;52.154;5.580;2023-06-22T08:26:55;3.85;;;3.45;;
24357;SDS011;13668;52.154;5.580;2023-06-22T08:29:21;4.00;;;3.60;;
24357;SDS011;13668;52.154;5.580;2023-06-22T08:31:47;3.80;;;3.40;;
24357;SDS011;13668;52.154;5.580;2023-06-22T08:34:13;4.65;;;3.60;;
24357;SDS011;13668;52.154;5.580;2023-06-22T08:36:39;2.80;;;2.60;;
24357;SDS011;13668;52.154;5.580;2023-06-22T08:39:09;3.25;;;2.72;;
24357;SDS011;13668;52.154;5.580;2023-06-22T08:41:36;3.83;;;2.90;;
24357;SDS011;13668;52.154;5.580;2023-06-22T08:44:02;3.65;;;2.78;;
24357;SDS011;13668;52.154;5.580;2023-06-22T08:46:29;2.30;;;2.10;;
24357;SDS011;13668;52.154;5.580;2023-06-22T08:48:58;2.90;;;2.65;;
24357;SDS011;13668;52.154;5.580;2023-06-22T08:51:24;4.40;;;3.03;;
24357;SDS011;13668;52.154;5.580;2023-06-22T08:53:50;3.08;;;2.78;;
24357;SDS011;13668;52.154;5.580;2023-06-22T08:56:16;3.47;;;3.17;;
24357;SDS011;13668;52.154;5.580;2023-06-22T08:58:43;2.53;;;2.25;;
24357;SDS011;13668;52.154;5.580;2023-06-22T09:01:09;3.25;;;2.95;;
24357;SDS011;13668;52.154;5.580;2023-06-22T09:03:35;2.95;;;2.45;;
24357;SDS011;13668;52.154;5.580;2023-06-22T09:06:02;1.98;;;1.83;;
24357;SDS011;13668;52.154;5.580;2023-06-22T09:08:28;3.00;;;2.08;;
24357;SDS011;13668;52.154;5.580;2023-06-22T09:10:54;2.55;;;2.35;;
24357;SDS011;13668;52.154;5.580;2023-06-22T09:13:20;2.58;;;2.13;;
24357;SDS011;13668;52.154;5.580;2023-06-22T09:15:47;2.25;;;2.05;;
24357;SDS011;13668;52.154;5.580;2023-06-22T09:18:13;2.45;;;2.20;;
24357;SDS011;13668;52.154;5.580;2023-06-22T09:20:39;3.92;;;3.00;;
24357;SDS011;13668;52.154;5.580;2023-06-22T09:23:05;2.42;;;2.22;;
24357;SDS011;13668;52.154;5.580;2023-06-22T09:25:31;2.35;;;1.67;;
24357;SDS011;13668;52.154;5.580;2023-06-22T09:27:57;3.92;;;2.70;;
24357;SDS011;13668;52.154;5.580;2023-06-22T09:30:23;3.70;;;3.00;;
24357;SDS011;13668;52.154;5.580;2023-06-22T09:32:49;2.60;;;2.40;;
24357;SDS011;13668;52.154;5.580;2023-06-22T09:35:15;3.17;;;2.35;;
24357;SDS011;13668;52.154;5.580;2023-06-22T09:37:41;1.98;;;1.85;;
24357;SDS011;13668;52.154;5.580;2023-06-22T09:40:07;2.78;;;2.40;;
24357;SDS011;13668;52.154;5.580;2023-06-22T09:42:35;2.45;;;1.63;;
24357;SDS011;13668;52.154;5.580;2023-06-22T09:45:01;3.15;;;2.17;;
24357;SDS011;13668;52.154;5.580;2023-06-22T09:47:27;2.13;;;1.60;;
24357;SDS011;13668;52.154;5.580;2023-06-22T09:49:53;2.95;;;1.67;;
24357;SDS011;13668;52.154;5.580;2023-06-22T09:52:20;2.03;;;1.83;;
24357;SDS011;13668;52.154;5.580;2023-06-22T09:54:46;3.17;;;1.85;;
24357;SDS011;13668;52.154;5.580;2023-06-22T09:57:12;2.35;;;2.15;;
24357;SDS011;13668;52.154;5.580;2023-06-22T09:59:38;2.03;;;1.70;;
24357;SDS011;13668;52.154;5.580;2023-06-22T10:02:07;1.85;;;1.58;;
24357;SDS011;13668;52.154;5.580;2023-06-22T10:04:34;2.60;;;1.92;;
24357;SDS011;13668;52.154;5.580;2023-06-22T10:07:01;3.05;;;2.25;;
24357;SDS011;13668;52.154;5.580;2023-06-22T10:09:27;2.40;;;1.95;;
24357;SDS011;13668;52.154;5.580;2023-06-22T10:11:53;2.88;;;2.30;;
24357;SDS011;13668;52.154;5.580;2023-06-22T10:14:19;3.10;;;2.35;;
24357;SDS011;13668;52.154;5.580;2023-06-22T10:16:45;2.85;;;2.20;;
24357;SDS011;13668;52.154;5.580;2023-06-22T10:19:11;2.35;;;2.10;;
24357;SDS011;13668;52.154;5.580;2023-06-22T10:21:37;3.83;;;2.28;;
24357;SDS011;13668;52.154;5.580;2023-06-22T10:24:03;2.75;;;2.13;;
24357;SDS011;13668;52.154;5.580;2023-06-22T10:26:34;3.13;;;2.58;;
24357;SDS011;13668;52.154;5.580;2023-06-22T10:29:01;2.83;;;2.42;;
24357;SDS011;13668;52.154;5.580;2023-06-22T10:31:27;2.28;;;2.08;;
24357;SDS011;13668;52.154;5.580;2023-06-22T10:33:53;2.53;;;2.00;;
24357;SDS011;13668;52.154;5.580;2023-06-22T10:36:19;2.10;;;1.90;;
24357;SDS011;13668;52.154;5.580;2023-06-22T10:38:45;3.83;;;2.13;;
24357;SDS011;13668;52.154;5.580;2023-06-22T10:41:12;2.65;;;2.35;;
24357;SDS011;13668;52.154;5.580;2023-06-22T10:43:38;2.55;;;2.35;;
24357;SDS011;13668;52.154;5.580;2023-06-22T10:46:04;3.55;;;2.97;;
24357;SDS011;13668;52.154;5.580;2023-06-22T10:48:30;3.38;;;2.40;;
24357;SDS011;13668;52.154;5.580;2023-06-22T10:50:56;3.70;;;2.42;;
24357;SDS011;13668;52.154;5.580;2023-06-22T10:53:21;3.58;;;2.40;;
24357;SDS011;13668;52.154;5.580;2023-06-22T10:55:47;2.95;;;2.63;;
24357;SDS011;13668;52.154;5.580;2023-06-22T10:58:14;3.58;;;3.25;;
24357;SDS011;13668;52.154;5.580;2023-06-22T11:00:40;2.60;;;2.40;;
24357;SDS011;13668;52.154;5.580;2023-06-22T11:03:06;3.60;;;3.00;;
24357;SDS011;13668;52.154;5.580;2023-06-22T11:05:32;3.28;;;2.22;;
24357;SDS011;13668;52.154;5.580;2023-06-22T11:07:58;2.13;;;1.92;;
24357;SDS011;13668;52.154;5.580;2023-06-22T11:10:24;2.33;;;2.13;;
24357;SDS011;13668;52.154;5.580;2023-06-22T11:12:51;2.22;;;2.03;;
24357;SDS011;13668;52.154;5.580;2023-06-22T11:15:18;2.85;;;2.50;;
24357;SDS011;13668;52.154;5.580;2023-06-22T11:17:44;3.72;;;2.83;;
24357;SDS011;13668;52.154;5.580;2023-06-22T11:20:10;4.47;;;3.05;;
24357;SDS011;13668;52.154;5.580;2023-06-22T11:22:37;3.67;;;2.85;;
24357;SDS011;13668;52.154;5.580;2023-06-22T11:25:04;3.13;;;2.92;;
24357;SDS011;13668;52.154;5.580;2023-06-22T11:27:30;4.03;;;2.97;;
24357;SDS011;13668;52.154;5.580;2023-06-22T11:29:56;3.75;;;3.35;;
24357;SDS011;13668;52.154;5.580;2023-06-22T11:32:22;4.80;;;4.32;;
24357;SDS011;13668;52.154;5.580;2023-06-22T11:34:48;3.45;;;3.15;;
24357;SDS011;13668;52.154;5.580;2023-06-22T11:37:14;5.20;;;3.80;;
24357;SDS011;13668;52.154;5.580;2023-06-22T11:39:41;4.18;;;3.72;;
24357;SDS011;13668;52.154;5.580;2023-06-22T11:42:07;3.42;;;3.13;;
24357;SDS011;13668;52.154;5.580;2023-06-22T11:44:34;4.65;;;3.95;;
24357;SDS011;13668;52.154;5.580;2023-06-22T11:47:00;3.83;;;3.42;;
24357;SDS011;13668;52.154;5.580;2023-06-22T11:49:28;5.80;;;3.10;;
24357;SDS011;13668;52.154;5.580;2023-06-22T11:51:54;3.78;;;3.20;;
24357;SDS011;13668;52.154;5.580;2023-06-22T11:54:20;4.85;;;3.83;;
24357;SDS011;13668;52.154;5.580;2023-06-22T11:56:46;4.35;;;3.65;;
24357;SDS011;13668;52.154;5.580;2023-06-22T11:59:12;4.35;;;3.42;;
24357;SDS011;13668;52.154;5.580;2023-06-22T12:01:38;4.68;;;4.15;;
24357;SDS011;13668;52.154;5.580;2023-06-22T12:04:04;3.33;;;3.03;;
24357;SDS011;13668;52.154;5.580;2023-06-22T12:06:33;4.00;;;3.60;;
24357;SDS011;13668;52.154;5.580;2023-06-22T12:09:03;4.80;;;3.25;;
24357;SDS011;13668;52.154;5.580;2023-06-22T12:11:30;4.65;;;3.78;;
24357;SDS011;13668;52.154;5.580;2023-06-22T12:13:55;3.58;;;2.95;;
24357;SDS011;13668;52.154;5.580;2023-06-22T12:16:26;6.72;;;4.45;;
24357;SDS011;13668;52.154;5.580;2023-06-22T12:18:52;4.75;;;3.17;;
24357;SDS011;13668;52.154;5.580;2023-06-22T12:21:18;5.38;;;4.47;;
24357;SDS011;13668;52.154;5.580;2023-06-22T12:23:44;4.30;;;3.72;;
24357;SDS011;13668;52.154;5.580;2023-06-22T12:26:10;4.72;;;3.55;;
24357;SDS011;13668;52.154;5.580;2023-06-22T12:28:36;4.07;;;3.67;;
24357;SDS011;13668;52.154;5.580;2023-06-22T12:31:02;4.75;;;3.72;;
24357;SDS011;13668;52.154;5.580;2023-06-22T12:33:28;4.95;;;4.30;;
24357;SDS011;13668;52.154;5.580;2023-06-22T12:35:55;5.47;;;3.58;;
24357;SDS011;13668;52.154;5.580;2023-06-22T12:38:21;4.30;;;3.85;;
24357;SDS011;13668;52.154;5.580;2023-06-22T12:40:49;4.57;;;4.18;;
24357;SDS011;13668;52.154;5.580;2023-06-22T12:43:15;5.85;;;4.65;;
24357;SDS011;13668;52.154;5.580;2023-06-22T12:45:41;7.32;;;5.20;;
24357;SDS011;13668;52.154;5.580;2023-06-22T12:48:07;5.97;;;4.50;;
24357;SDS011;13668;52.154;5.580;2023-06-22T12:50:33;6.95;;;4.88;;
24357;SDS011;13668;52.154;5.580;2023-06-22T12:52:59;6.30;;;4.93;;
24357;SDS011;13668;52.154;5.580;2023-06-22T12:55:27;5.13;;;4.53;;
24357;SDS011;13668;52.154;5.580;2023-06-22T12:57:53;5.82;;;5.25;;
24357;SDS011;13668;52.154;5.580;2023-06-22T13:00:19;6.35;;;5.13;;
24357;SDS011;13668;52.154;5.580;2023-06-22T13:02:45;6.13;;;5.32;;
24357;SDS011;13668;52.154;5.580;2023-06-22T13:05:11;6.13;;;5.18;;
24357;SDS011;13668;52.154;5.580;2023-06-22T13:07:37;6.22;;;5.28;;
24357;SDS011;13668;52.154;5.580;2023-06-22T13:10:03;6.18;;;4.50;;
24357;SDS011;13668;52.154;5.580;2023-06-22T13:12:29;5.97;;;4.72;;
24357;SDS011;13668;52.154;5.580;2023-06-22T13:14:55;7.13;;;5.57;;
24357;SDS011;13668;52.154;5.580;2023-06-22T13:17:21;6.90;;;5.00;;
24357;SDS011;13668;52.154;5.580;2023-06-22T13:19:47;4.95;;;4.40;;
24357;SDS011;13668;52.154;5.580;2023-06-22T13:22:30;6.97;;;5.25;;
24357;SDS011;13668;52.154;5.580;2023-06-22T13:24:56;8.40;;;6.10;;
24357;SDS011;13668;52.154;5.580;2023-06-22T13:27:22;6.55;;;5.30;;
24357;SDS011;13668;52.154;5.580;2023-06-22T13:29:48;5.78;;;5.15;;
24357;SDS011;13668;52.154;5.580;2023-06-22T13:32:14;4.82;;;4.43;;
24357;SDS011;13668;52.154;5.580;2023-06-22T13:34:41;5.57;;;4.97;;
24357;SDS011;13668;52.154;5.580;2023-06-22T13:37:07;5.43;;;4.90;;
24357;SDS011;13668;52.154;5.580;2023-06-22T13:39:33;6.50;;;5.70;;
24357;SDS011;13668;52.154;5.580;2023-06-22T13:41:59;5.80;;;4.90;;
24357;SDS011;13668;52.154;5.580;2023-06-22T13:44:25;6.22;;;5.60;;
24357;SDS011;13668;52.154;5.580;2023-06-22T13:46:54;7.50;;;5.93;;
24357;SDS011;13668;52.154;5.580;2023-06-22T13:49:20;6.60;;;5.00;;
24357;SDS011;13668;52.154;5.580;2023-06-22T13:51:46;5.80;;;4.90;;
24357;SDS011;13668;52.154;5.580;2023-06-22T13:54:15;6.85;;;5.50;;
24357;SDS011;13668;52.154;5.580;2023-06-22T13:56:41;6.07;;;5.13;;
24357;SDS011;13668;52.154;5.580;2023-06-22T13:59:07;7.30;;;5.70;;
24357;SDS011;13668;52.154;5.580;2023-06-22T14:01:37;8.93;;;6.18;;
24357;SDS011;13668;52.154;5.580;2023-06-22T14:04:04;5.43;;;4.93;;
24357;SDS011;13668;52.154;5.580;2023-06-22T14:06:30;5.82;;;4.70;;
24357;SDS011;13668;52.154;5.580;2023-06-22T14:08:56;7.75;;;5.10;;
24357;SDS011;13668;52.154;5.580;2023-06-22T14:11:22;5.90;;;5.22;;
24357;SDS011;13668;52.154;5.580;2023-06-22T14:13:48;5.07;;;4.55;;
24357;SDS011;13668;52.154;5.580;2023-06-22T14:16:14;6.53;;;5.22;;
24357;SDS011;13668;52.154;5.580;2023-06-22T14:18:40;6.07;;;5.45;;
24357;SDS011;13668;52.154;5.580;2023-06-22T14:21:07;5.55;;;4.93;;
24357;SDS011;13668;52.154;5.580;2023-06-22T14:23:33;5.57;;;4.97;;
24357;SDS011;13668;52.154;5.580;2023-06-22T14:25:59;5.72;;;4.63;;
24357;SDS011;13668;52.154;5.580;2023-06-22T14:28:25;5.97;;;5.28;;
24357;SDS011;13668;52.154;5.580;2023-06-22T14:30:51;4.85;;;4.35;;
24357;SDS011;13668;52.154;5.580;2023-06-22T14:33:17;6.93;;;4.97;;
24357;SDS011;13668;52.154;5.580;2023-06-22T14:35:43;6.40;;;5.07;;
24357;SDS011;13668;52.154;5.580;2023-06-22T14:38:09;6.97;;;5.38;;
24357;SDS011;13668;52.154;5.580;2023-06-22T14:40:35;4.88;;;4.32;;
24357;SDS011;13668;52.154;5.580;2023-06-22T14:43:01;6.05;;;5.30;;
24357;SDS011;13668;52.154;5.580;2023-06-22T14:45:27;4.63;;;4.28;;
24357;SDS011;13668;52.154;5.580;2023-06-22T14:47:53;6.97;;;5.35;;
24357;SDS011;13668;52.154;5.580;2023-06-22T14:50:19;5.65;;;5.10;;